Edmonton / Villeneuve (Rose Field)

CRF3 · Alberta, Canada

Storia di METAR CRF3 · Edmonton / Villeneuve (Rose Field)

Di seguito sono riportati i METAR degli ultimi giorni. Seleziona un anno per sfogliare i METAR più vecchi, dall'anno 2007 in poi.

1 dicembre 2022

Tempo Codice Tempo metereologico Temp. Vista Base nuvolosa Vento METAR/SPECI
19:34
M
-22 °C 9 mi 1.900 ft Var Var 2 kt METAR CZVL 020234Z AUTO VRB02KT 9SM OVC019 M22/M25 A2984 RMK SLP177
19:34
M
-22 °C 9 mi 1.900 ft Var Var 2 kt METAR CZVL 020234Z AUTO VRB02KT 9SM OVC019 M22/M25 A2984 RMK SLP177
19:23
M
-22 °C 9 mi 1.900 ft 260° 260° 3 kt METAR CZVL 020223Z AUTO 26003KT 9SM -SN OVC019 M22/M25 A2984 RMK SLP177
19:00
M
-22 °C 9 mi 1.900 ft 280° 280° 2 kt METAR CZVL 020200Z AUTO 28002KT 9SM OVC019 M22/M25 A2984 RMK SLP176
18:00
M
-22 °C 9 mi 1.900 ft 250° 250° 2 kt METAR CZVL 020100Z AUTO 25002KT 9SM OVC019 M22/M25 A2982 RMK SLP173
17:00
M
-22 °C 9 mi 1.900 ft 270° 270° 3 kt METAR CZVL 020000Z AUTO 27003KT 9SM OVC019 M22/M25 A2981 RMK SLP169
16:00
M
-22 °C 9 mi 2.100 ft 270° 270° 3 kt METAR CZVL 012300Z AUTO 27003KT 9SM OVC021 M22/M25 A2980 RMK SLP165
15:00
M
-22 °C 9 mi 2.100 ft 300° 300° 3 kt METAR CZVL 012200Z AUTO 30003KT 9SM OVC021 M22/M25 A2979 RMK SLP161
14:00
M
-23 °C 9 mi 2.300 ft 290° 290° 4 kt METAR CZVL 012100Z AUTO 29004KT 9SM OVC023 M23/M25 A2979 RMK SLP159
13:35
M
-23 °C 9 mi 2.300 ft 300° 300° 4 kt METAR CZVL 012035Z AUTO 30004KT 9SM BKN023 M23/M25 A2979 RMK SLP160
13:11
V
-23 °C 9 mi - 300° 300° 5 kt METAR CZVL 012011Z AUTO 30005KT 9SM SCT023 M23/M26 A2979 RMK SLP163
13:00
M
-23 °C 9 mi 2.300 ft 310° 310° 5 kt METAR CZVL 012000Z AUTO 31005KT 9SM BKN023 M23/M25 A2980 RMK SLP163
12:00
V
-24 °C 9 mi - 300° 300° 4 kt METAR CZVL 011900Z AUTO 30004KT 9SM CLR M24/M26 A2981 RMK SLP167
11:10
V
-25 °C 9 mi - 300° 300° 6 kt METAR CZVL 011810Z AUTO 30006KT 9SM SCT017 M25/M27 A2982 RMK SLP174
11:00
M
-25 °C 9 mi 1.700 ft 290° 290° 5 kt METAR CZVL 011800Z AUTO 29005KT 9SM BKN017 M25/M27 A2982 RMK SLP170
10:16
M
-25 °C 9 mi 1.300 ft 290° 290° 6 kt METAR CZVL 011716Z AUTO 29006KT 9SM OVC013 M25/M27 A2982 RMK SLP174
10:00
M
-25 °C 9 mi 1.300 ft 300° 300° 6 kt METAR CZVL 011700Z AUTO 30006KT 9SM -SN OVC013 M25/M27 A2982 RMK SLP170
09:51
M
-25 °C 6 mi 1.300 ft 300° 300° 6 kt METAR CZVL 011651Z AUTO 30006KT 6SM -SN OVC013 M25/M27 A2982 RMK SLP174
09:39
M
-25 °C 4 mi 1.300 ft 290° 290° 6 kt METAR CZVL 011639Z AUTO 29006KT 4SM -SN OVC013 M25/M27 A2982 RMK SLP173
09:37
M
-25 °C 4 mi 1.300 ft 300° 300° 7 kt SPECI CZVL 011637Z AUTO 30007KT 4SM BR OVC013 M25/M27 A2981 RMK SLP172
09:34
M
-24 °C 6 mi 1.300 ft 300° 300° 7 kt METAR CZVL 011634Z AUTO 30007KT 6SM HZ OVC013 M24/M27 A2981 RMK SLP172
09:21
M
-24 °C 9 mi 1.300 ft 300° 300° 7 kt METAR CZVL 011621Z AUTO 30007KT 9SM OVC013 M24/M27 A2981 RMK SLP170
09:05
M
-24 °C 9 mi 1.300 ft 300° 300° 6 kt METAR CZVL 011605Z AUTO 30006KT 9SM -SN OVC013 M24/M27 A2980 RMK SLP168
08:00
M
-24 °C 9 mi 1.500 ft 300° 300° 5 kt METAR CZVL 011500Z AUTO 30005KT 9SM -SN OVC015 M24/M26 A2980 RMK SLP164
07:00
M
-24 °C 9 mi 1.500 ft 300° 300° 6 kt METAR CZVL 011400Z AUTO 30006KT 9SM -SN OVC015 M24/M26 A2982 RMK SLP169
06:19
M
-24 °C 9 mi 1.700 ft 290° 290° 6 kt METAR CZVL 011319Z AUTO 29006KT 9SM -SN OVC017 M24/M26 A2982 RMK SLP172
06:01
M
-24 °C 9 mi 1.700 ft 290° 290° 5 kt SPECI CZVL 011301Z AUTO 29005KT 9SM OVC017 M24/M27 A2981 RMK SLP172
06:00
M
-24 °C 9 mi 1.700 ft 300° 300° 5 kt METAR CZVL 011300Z AUTO 30005KT 9SM -SN OVC017 M24/M27 A2981 RMK SLP167
05:00
M
-24 °C 9 mi 1.700 ft 300° 300° 6 kt METAR CZVL 011200Z AUTO 30006KT 9SM -SN OVC017 M24/M26 A2981 RMK SLP166
04:00
M
-24 °C 9 mi 1.700 ft 300° 300° 7 kt METAR CZVL 011100Z AUTO 30007KT 9SM -SN OVC017 M24/M27 A2981 RMK SLP167
03:12
M
-25 °C 9 mi 1.700 ft 290° 290° 8 kt METAR CZVL 011012Z AUTO 29008KT 9SM -SN BKN017 M25/M27 A2983 RMK SLP179
03:00
V
-25 °C 9 mi - 290° 290° 7 kt METAR CZVL 011000Z AUTO 29007KT 9SM -SN CLR M25/M27 A2983 RMK SLP174
02:00
V
-23 °C 9 mi - 290° 290° 6 kt METAR CZVL 010900Z AUTO 29006KT 9SM -SN CLR M23/M25 A2984 RMK SLP176
01:00
V
-23 °C 9 mi - 300° 300° 6 kt METAR CZVL 010800Z AUTO 30006KT 9SM -SN SCT180 M23/M25 A2985 RMK SLP179
00:21
V
-23 °C 6 mi - 320° 320° 3 kt METAR CZVL 010721Z AUTO 32003KT 6SM -SN FEW022 M23/M24 A2985 RMK SLP182
00:00
I
-22 °C 3 mi 2.800 ft 340° 340° 4 kt METAR CZVL 010700Z AUTO 34004KT 3SM -SN BKN028 M22/M24 A2986 RMK SLP180

30 novembre 2022

Tempo Codice Tempo metereologico Temp. Vista Base nuvolosa Vento METAR/SPECI
23:00
M
-20 °C 4 mi 3.200 ft 340° 340° 4 kt METAR CZVL 010600Z AUTO 34004KT 4SM -SN OVC032 M20/M22 A2987 RMK SLP180
22:00
V
-20 °C 5 mi 4.200 ft 350° 350° 5 kt METAR CZVL 010500Z AUTO 35005KT 5SM -SN OVC042 M20/M22 A2987 RMK SLP182
21:57
V
-20 °C 5 mi 4.200 ft 350° 350° 5 kt METAR CZVL 010457Z AUTO 35005KT 5SM -SN OVC042 M20/M22 A2988 RMK SLP185
21:48
V
-20 °C 6 mi 4.200 ft 350° 350° 5 kt SPECI CZVL 010448Z AUTO 35005KT 6SM -SN OVC042 M20/M22 A2988 RMK SLP185
21:41
I
-20 °C 3 mi 4.200 ft 340° 340° 5 kt METAR CZVL 010441Z AUTO 34005KT 3SM -SN OVC042 M20/M22 A2988 RMK SLP186
21:23
I
-20 °C 2¼ mi 4.200 ft 010° 010° 4 kt METAR CZVL 010423Z AUTO 01004KT 2 1/4SM -SN OVC042 M20/M22 A2988 RMK SLP186
21:11
V
-20 °C 5 mi 4.400 ft 010° 010° 4 kt METAR CZVL 010411Z AUTO 01004KT 5SM -SN OVC044 M20/M22 A2988 RMK SLP187
21:00
V
-20 °C 9 mi 5.000 ft 360° 360° 5 kt METAR CZVL 010400Z AUTO 36005KT 9SM -SN OVC050 M20/M22 A2988 RMK SLP185
20:36
V
-20 °C 6 mi 4.400 ft 010° 010° 5 kt METAR CZVL 010336Z AUTO 01005KT 6SM -SN BKN044 BKN066 M20/M22 A2988 RMK SLP186
20:34
V
-20 °C 6 mi 3.900 ft 010° 010° 5 kt METAR CZVL 010334Z AUTO 01005KT 6SM -SN BKN039 BKN066 M20/M22 A2988 RMK SLP186
20:20
I
-20 °C 3 mi 2.200 ft 020° 020° 7 kt METAR CZVL 010320Z AUTO 02007KT 3SM -SN BKN022 M20/M22 A2988 RMK SLP186
20:10
I
-20 °C 2 mi 2.200 ft 020° 020° 8 kt METAR CZVL 010310Z AUTO 02008KT 2SM -SN OVC022 M20/M22 A2988 RMK SLP186
20:02
I
-20 °C 1¾ mi 2.400 ft 020° 020° 7 kt METAR CZVL 010302Z AUTO 02007KT 1 3/4SM -SN OVC024 M20/M22 A2988 RMK SLP186
20:00
I
-20 °C 1¾ mi 2.600 ft 020° 020° 7 kt METAR CZVL 010300Z AUTO 02007KT 1 3/4SM -SN OVC026 M20/M22 A2988 RMK SLP183
19:58
I
-20 °C 1¾ mi 2.600 ft 020° 020° 6 kt METAR CZVL 010258Z AUTO 02006KT 1 3/4SM -SN OVC026 M20/M22 A2988 RMK SLP186
19:25
I
-20 °C 1¾ mi 2.800 ft 050° 050° 6 kt METAR CZVL 010225Z AUTO 05006KT 1 3/4SM -SN OVC028 M20/M22 A2989 RMK SLP188
19:00
I
-20 °C 1½ mi 2.400 ft 030° 030° 7 kt METAR CZVL 010200Z AUTO 03007KT 1 1/2SM -SN OVC024 M20/M22 A2989 RMK SLP186
18:13
I
-20 °C 1½ mi 2.600 ft 040° 040° 5 kt METAR CZVL 010113Z AUTO 04005KT 1 1/2SM -SN OVC026 M20/M22 A2989 RMK SLP188
18:00
I
-20 °C 1½ mi 2.400 ft 060° 060° 6 kt METAR CZVL 010100Z AUTO 06006KT 1 1/2SM -SN OVC024 M20/M22 A2989 RMK SLP185
17:24
I
-19 °C 1¾ mi 2.200 ft 060° 060° 6 kt METAR CZVL 010024Z AUTO 06006KT 1 3/4SM -SN OVC022 M19/M22 A2989 RMK SLP188
17:13
I
-20 °C 2 mi 2.200 ft 060° 060° 9 kt METAR CZVL 010013Z AUTO 06009KT 2SM -SN OVC022 M20/M22 A2989 RMK VIS VRB 1 1/4-2 1/2 SLP188
17:00
I
-19 °C 1¼ mi 2.000 ft 060° 060° 8 kt METAR CZVL 010000Z AUTO 06008KT 1 1/4SM -SN OVC020 M19/M22 A2989 RMK SLP187
16:00
I
-19 °C 1¼ mi 1.800 ft 060° 060° 8 kt METAR CZVL 302300Z AUTO 06008KT 1 1/4SM -SN OVC018 M19/M22 A2990 RMK SLP190
15:03
I
-19 °C 1¾ mi 2.000 ft 070° 070° 11 - 16 kt METAR CZVL 302203Z AUTO 07011G16KT 1 3/4SM -SN OVC020 M19/M22 A2991 RMK SLP194
15:00
I
-19 °C 2 mi 2.000 ft 070° 070° 8 kt METAR CZVL 302200Z AUTO 07008KT 2SM -SN OVC020 M19/M22 A2991 RMK SLP192
14:00
I
-19 °C 1 mi 2.200 ft 060° 060° 10 kt METAR CZVL 302100Z AUTO 06010KT 1SM R26/P6000FT/N -SN OVC022 M19/M22 A2993 RMK SLP200
13:00
I
-19 °C 1¼ mi 2.000 ft 070° 070° 11 - 16 kt METAR CZVL 302000Z AUTO 07011G16KT 1 1/4SM -SN OVC020 M19/M21 A2994 RMK SLP204
12:17
I
-19 °C 1¾ mi 1.900 ft 070° 070° 10 - 17 kt METAR CZVL 301917Z AUTO 07010G17KT 1 3/4SM -SN OVC019 M19/M21 A2997 RMK SLP215
12:09
I
-19 °C 2 mi 2.100 ft 070° 070° 13 - 18 kt METAR CZVL 301909Z AUTO 07013G18KT 2SM -SN OVC021 M19/M21 A2997 RMK SLP215
11:40
I
-19 °C 1¼ mi 2.300 ft 060° 060° 12 kt METAR CZVL 301840Z AUTO 06012KT 1 1/4SM -SN OVC023 M19/M21 A2998 RMK SLP216
11:32
I
-19 °C 1¾ mi 2.900 ft 070° 070° 11 kt METAR CZVL 301832Z AUTO 07011KT 1 3/4SM -SN OVC029 M19/M21 A2998 RMK SLP216
11:00
I
-18 °C 3 mi 3.100 ft 070° 070° 11 - 19 kt METAR CZVL 301800Z AUTO 07011G19KT 3SM -SN OVC031 M18/M20 A2998 RMK SLP214
10:43
I
-18 °C 3 mi 2.500 ft 070° 070° 11 - 16 kt METAR CZVL 301743Z AUTO 07011G16KT 3SM -SN OVC025 M18/M20 A2998 RMK SLP217
10:37
I
-18 °C 2 mi 2.500 ft 070° 070° 11 - 17 kt METAR CZVL 301737Z AUTO 07011G17KT 2SM -SN OVC025 M18/M20 A2998 RMK SLP216
10:21
I
-18 °C 1¾ mi 2.500 ft 070° 070° 12 - 17 kt METAR CZVL 301721Z AUTO 07012G17KT 1 3/4SM -SN OVC025 M18/M20 A2998 RMK SLP219
10:02
I
-18 °C 3 mi 3.100 ft 060° 060° 14 kt METAR CZVL 301702Z AUTO 06014KT 3SM -SN OVC031 M18/M20 A2999 RMK SLP220
10:00
I
-18 °C 2½ mi 3.100 ft 060° 060° 14 kt METAR CZVL 301700Z AUTO 06014KT 2 1/2SM -SN OVC031 M18/M20 A2999 RMK SLP218
09:36
I
-18 °C 2½ mi 3.300 ft 070° 070° 13 kt METAR CZVL 301636Z AUTO 07013KT 2 1/2SM -SN OVC033 M18/M20 A2998 RMK VIS VRB 2-3 SLP218
09:08
I
-18 °C 3 mi 3.100 ft 070° 070° 11 - 17 kt METAR CZVL 301608Z AUTO 07011G17KT 3SM -SN OVC031 M18/M20 A2999 RMK SLP221
08:55
I
-17 °C 3 mi 2.300 ft 070° 070° 11 - 17 kt METAR CZVL 301555Z AUTO 07011G17KT 3SM -SN OVC023 M17/M19 A3000 RMK SLP223
08:00
M
-17 °C 4 mi 3.500 ft 070° 070° 10 - 17 kt METAR CZVL 301500Z AUTO 07010G17KT 4SM -SN OVC035 M17/M19 A3001 RMK SLP227
07:10
I
-16 °C 3 mi 2.700 ft 080° 080° 10 kt METAR CZVL 301410Z AUTO 08010KT 3SM -SN OVC027 M16/M18 A3003 RMK SLP230
07:04
I
-16 °C 3 mi 2.500 ft 070° 070° 9 kt METAR CZVL 301404Z AUTO 07009KT 3SM -SN OVC025 M16/M18 A3003 RMK SLP230
06:57
I
-16 °C 2 mi 1.900 ft 080° 080° 12 kt METAR CZVL 301357Z AUTO 08012KT 2SM -SN OVC019 M16/M18 A3003 RMK SLP230
06:45
I
-16 °C 1¾ mi 1.900 ft 070° 070° 11 kt SPECI CZVL 301345Z AUTO 07011KT 1 3/4SM -SN OVC019 M16/M18 A3003 RMK SLP233
06:39
I
-16 °C 2¼ mi 2.100 ft 070° 070° 10 kt METAR CZVL 301339Z AUTO 07010KT 2 1/4SM -SN OVC021 M16/M18 A3003 RMK SLP233
06:35
I
-16 °C 3 mi 2.300 ft 080° 080° 9 kt SPECI CZVL 301335Z AUTO 08009KT 3SM -SN OVC023 M16/M18 A3004 RMK SLP234
06:00
I
-17 °C 3 mi 2.900 ft 080° 080° 10 - 16 kt METAR CZVL 301300Z AUTO 08010G16KT 3SM -SN OVC029 M17/M18 A3003 RMK SLP236
05:50
I
-17 °C 3 mi 2.700 ft 080° 080° 13 kt METAR CZVL 301250Z AUTO 08013KT 3SM -SN OVC027 M17/M18 A3003 RMK SLP233
05:48
I
-17 °C 3 mi 2.500 ft 080° 080° 12 kt SPECI CZVL 301248Z AUTO 08012KT 3SM -SN OVC025 M17/M18 A3003 RMK SLP232
05:01
I
-17 °C 2½ mi 2.300 ft 080° 080° 12 - 17 kt METAR CZVL 301201Z AUTO 08012G17KT 2 1/2SM -SN FEW010 OVC023 M17/M18 A3004 RMK SLP236
05:00
I
-17 °C 3 mi 2.300 ft 080° 080° 13 kt METAR CZVL 301200Z AUTO 08013KT 3SM -SN FEW010 OVC023 M17/M18 A3004 RMK SLP240
04:53
M
-17 °C 5 mi 2.500 ft 080° 080° 12 - 17 kt METAR CZVL 301153Z AUTO 08012G17KT 5SM -SN SCT010 SCT016 OVC025 M17/M18 A3005 RMK SLP238
04:28
M
-17 °C 9 mi 1.000 ft 080° 080° 11 kt METAR CZVL 301128Z AUTO 08011KT 9SM -SN BKN010 OVC018 M17/M18 A3007 RMK PRESFR SLP247
04:00
M
-17 °C 9 mi 2.000 ft 080° 080° 6 kt METAR CZVL 301100Z AUTO 08006KT 9SM FEW010 OVC020 M17/M18 A3010 RMK SLP257
03:24
M
-17 °C 9 mi 1.000 ft 070° 070° 6 kt METAR CZVL 301024Z AUTO 07006KT 9SM BKN010 OVC034 M17/M19 A3010 RMK SLP258
03:00
V
-17 °C 9 mi 3.200 ft 070° 070° 9 kt METAR CZVL 301000Z AUTO 07009KT 9SM SCT021 OVC032 M17/M19 A3010 RMK SLP256
02:24
M
-17 °C 9 mi 2.100 ft 070° 070° 9 kt METAR CZVL 300924Z AUTO 07009KT 9SM OVC021 M17/M18 A3010 RMK SLP257
02:00
M
-17 °C 9 mi 1.900 ft 070° 070° 9 kt METAR CZVL 300900Z AUTO 07009KT 9SM -SN OVC019 M17/M18 A3010 RMK SLP255
01:00
M
-17 °C 8 mi 1.900 ft 060° 060° 6 kt METAR CZVL 300800Z AUTO 06006KT 8SM -SN BKN019 OVC024 M17/M18 A3013 RMK SLP265
00:00
M
-17 °C 9 mi 1.900 ft 070° 070° 4 kt METAR CZVL 300700Z AUTO 07004KT 9SM -SN OVC019 M17/M18 A3015 RMK SLP272

29 novembre 2022

Tempo Codice Tempo metereologico Temp. Vista Base nuvolosa Vento METAR/SPECI
23:00
M
-17 °C 9 mi 1.900 ft 050° 050° 4 kt METAR CZVL 300600Z AUTO 05004KT 9SM -SN OVC019 M17/M18 A3015 RMK SLP272
22:00
M
-17 °C 9 mi 1.500 ft 070° 070° 4 kt METAR CZVL 300500Z AUTO 07004KT 9SM -SN OVC015 M17/M18 A3015 RMK SLP273
21:00
M
-17 °C 9 mi 1.900 ft 040° 040° 6 kt METAR CZVL 300400Z AUTO 04006KT 9SM -SN BKN019 OVC027 M17/M19 A3015 RMK SLP274
20:58
M
-17 °C 9 mi 1.900 ft 040° 040° 5 kt METAR CZVL 300358Z AUTO 04005KT 9SM -SN BKN019 OVC027 M17/M19 A3015 RMK SLP274
20:00
M
-18 °C 9 mi 2.700 ft 020° 020° 5 kt METAR CZVL 300300Z AUTO 02005KT 9SM -SN OVC027 M18/M19 A3016 RMK SLP277
19:45
M
-18 °C 9 mi 2.700 ft 350° 350° 4 kt METAR CZVL 300245Z AUTO 35004KT 9SM -SN OVC027 M18/M19 A3016 RMK SLP280
19:24
M
-18 °C 9 mi 2.700 ft 340° 340° 5 kt METAR CZVL 300224Z AUTO 34005KT 9SM OVC027 M18/M20 A3017 RMK SLP282
19:11
M
-18 °C 9 mi 2.700 ft 330° 330° 3 kt METAR CZVL 300211Z AUTO 33003KT 9SM -SN OVC027 M18/M20 A3017 RMK SLP282
19:00
M
-18 °C 9 mi 2.700 ft 330° 330° 4 kt METAR CZVL 300200Z AUTO 33004KT 9SM OVC027 M18/M20 A3017 RMK SLP280
18:55
M
-18 °C 9 mi 2.700 ft 320° 320° 4 kt METAR CZVL 300155Z AUTO 32004KT 9SM OVC027 M18/M20 A3017 RMK SLP284
18:37
M
-19 °C 9 mi 2.700 ft 320° 320° 5 kt METAR CZVL 300137Z AUTO 32005KT 9SM -SN BKN027 OVC033 M19/M21 A3017 RMK SLP285
18:00
V
-20 °C 9 mi 3.200 ft 310° 310° 4 kt METAR CZVL 300100Z AUTO 31004KT 9SM BKN032 M20/M22 A3017 RMK SLP282
17:00
V
-20 °C 9 mi - 310° 310° 4 kt METAR CZVL 300000Z AUTO 31004KT 9SM CLR M20/M22 A3016 RMK SLP277
16:00
V
-18 °C 9 mi - 350° 350° 5 kt METAR CZVL 292300Z AUTO 35005KT 9SM CLR M18/M21 A3015 RMK SLP273
15:00
V
-16 °C 9 mi - 360° 360° 6 kt METAR CZVL 292200Z AUTO 36006KT 9SM CLR M16/M19 A3015 RMK SLP270
14:04
M
-16 °C 9 mi 2.700 ft 350° 350° 7 kt METAR CZVL 292104Z AUTO 35007KT 9SM BKN027 M16/M19 A3015 RMK SLP270
13:54
V
-16 °C 9 mi 3.100 ft 360° 360° 7 kt METAR CZVL 292054Z AUTO 36007KT 9SM -SN FEW015 BKN031 M16/M19 A3014 RMK SLP269
13:25
V
-15 °C 8 mi - 340° 340° 9 kt METAR CZVL 292025Z AUTO 34009KT 8SM -SN SCT015 SCT022 M15/M18 A3014 RMK SLP267
13:13
M
-15 °C 6 mi 2.400 ft 340° 340° 8 kt METAR CZVL 292013Z AUTO 34008KT 6SM -SN FEW015 BKN024 M15/M19 A3014 RMK SLP268
13:00
I
-16 °C 3 mi 2.800 ft 360° 360° 8 kt METAR CZVL 292000Z AUTO 36008KT 3SM -SN BKN028 OVC035 M16/M19 A3014 RMK SLP266
12:51
V
-15 °C 5 mi 3.400 ft 350° 350° 8 kt METAR CZVL 291951Z AUTO 35008KT 5SM -SN BKN034 OVC047 M15/M19 A3014 RMK SLP268
12:24
V
-16 °C 6 mi 5.000 ft 360° 360° 9 kt METAR CZVL 291924Z AUTO 36009KT 6SM -SN SCT032 BKN050 M16/M19 A3014 RMK SLP267
12:00
V
-15 °C 5 mi 3.000 ft 340° 340° 9 kt METAR CZVL 291900Z AUTO 34009KT 5SM -SN FEW017 BKN030 M15/M19 A3014 RMK SLP266
11:56
V
-16 °C 5 mi 3.200 ft 350° 350° 9 kt METAR CZVL 291856Z AUTO 35009KT 5SM HZ FEW017 BKN032 M16/M19 A3014 RMK SLP266
11:43
V
-16 °C 8 mi - 350° 350° 9 kt METAR CZVL 291843Z AUTO 35009KT 8SM SCT037 M16/M19 A3014 RMK SLP268
11:27
V
-15 °C 7 mi - 340° 340° 9 kt METAR CZVL 291827Z AUTO 34009KT 7SM -SN CLR M15/M18 A3014 RMK SLP268
11:00
V
-16 °C 6 mi 3.000 ft 350° 350° 8 kt METAR CZVL 291800Z AUTO 35008KT 6SM -SN BKN030 M16/M19 A3014 RMK SLP267
10:59
V
-16 °C 6 mi 3.000 ft 350° 350° 9 kt METAR CZVL 291759Z AUTO 35009KT 6SM -SN BKN030 M16/M19 A3014 RMK SLP267
10:29
V
-16 °C 5 mi 3.600 ft 340° 340° 9 kt METAR CZVL 291729Z AUTO 34009KT 5SM -SN OVC036 M16/M19 A3014 RMK SLP268
10:23
V
-16 °C 6 mi 3.600 ft 340° 340° 8 kt METAR CZVL 291723Z AUTO 34008KT 6SM -SN OVC036 M16/M19 A3014 RMK SLP269
10:07
V
-16 °C 5 mi 3.600 ft 340° 340° 9 kt METAR CZVL 291707Z AUTO 34009KT 5SM -SN OVC036 M16/M19 A3014 RMK SLP268
09:00
V
-16 °C 9 mi 3.800 ft 330° 330° 9 kt METAR CZVL 291600Z AUTO 33009KT 9SM -SN BKN038 OVC055 M16/M18 A3013 RMK SLP264
08:00
V
-16 °C 9 mi 9.100 ft 330° 330° 10 kt METAR CZVL 291500Z AUTO 33010KT 9SM -SN FEW038 OVC091 M16/M18 A3012 RMK SLP260
07:00
M
-15 °C 9 mi 2.800 ft 350° 350° 13 kt METAR CZVL 291400Z AUTO 35013KT 9SM -SN FEW017 OVC028 M15/M18 A3012 RMK SLP257
06:00
M
-15 °C 9 mi 2.800 ft 330° 330° 11 kt METAR CZVL 291300Z AUTO 33011KT 9SM -SN SCT017 OVC028 M15/M17 A3011 RMK SLP255
05:00
V
-15 °C 9 mi 4.100 ft 330° 330° 11 kt METAR CZVL 291200Z AUTO 33011KT 9SM -SN FEW019 BKN041 OVC076 M15/M17 A3011 RMK SLP253
04:00
V
-14 °C 9 mi 3.500 ft 330° 330° 14 kt METAR CZVL 291100Z AUTO 33014KT 9SM -SN BKN035 OVC047 M14/M17 A3010 RMK SLP251
03:14
V
-14 °C 9 mi 3.500 ft 320° 320° 13 - 18 kt METAR CZVL 291014Z AUTO 32013G18KT 9SM -SN SCT021 OVC035 M14/M17 A3010 RMK SLP251
03:00
M
-14 °C 9 mi 2.100 ft 320° 320° 14 kt METAR CZVL 291000Z AUTO 32014KT 9SM -SN BKN021 OVC035 M14/M17 A3010 RMK SLP248

Noi e le terze parti seguiamo il tuo comportamento su internet con i cookie. Se continui, riteniamo che tu sia d'accordo con la nostra Politica sui cookie.